Time;durP1;ratioP1;P1;durP2;ratioP2;P2;SDS_P1;SDS_P2;PMS_P1;PMS_P2;Temp;Humidity;BMP_temperature;BMP_pressure;BME280_temperature;BME280_humidity;BME280_pressure;Samples;Min_cycle;Max_cycle;Signal;HPM_P1;HPM_P2
2021/03/02 00:01:07;;;;;;;90.87;47.30;;;128.40;1971.20;;;;;;4981148;28;20459;-81
2021/03/02 00:03:36;;;;;;;91.93;49.37;;;128.30;1971.20;;;;;;4980826;28;20026;-81
2021/03/02 00:06:03;;;;;;;100.73;53.80;;;128.30;1971.20;;;;;;4980907;28;20045;-82
2021/03/02 00:08:29;;;;;;;92.93;51.20;;;128.30;1971.20;;;;;;4980937;28;20027;-81
2021/03/02 00:10:58;;;;;;;101.60;56.70;;;128.30;1971.20;;;;;;4981026;28;20046;-81
2021/03/02 00:13:24;;;;;;;88.57;49.93;;;128.20;1996.80;;;;;;4980760;28;20028;-80
2021/03/02 00:15:51;;;;;;;92.67;49.77;;;128.20;2022.40;;;;;;4996722;28;20463;-82
2021/03/02 00:18:22;;;;;;;81.63;45.00;;;128.20;1996.80;;;;;;4997908;28;20497;-81
2021/03/02 00:20:54;;;;;;;65.73;37.50;;;128.10;2022.40;;;;;;4980812;28;20030;-80
2021/03/02 00:23:29;;;;;;;54.50;30.47;;;128.00;2048.00;;;;;;4980101;28;20375;-81
2021/03/02 00:25:57;;;;;;;50.30;27.10;;;128.00;2048.00;;;;;;4979105;28;20039;-80
2021/03/02 00:28:26;;;;;;;52.77;28.10;;;128.00;2048.00;;;;;;4980445;28;20033;-80
2021/03/02 00:30:53;;;;;;;53.63;27.57;;;128.00;2048.00;;;;;;4980075;28;20077;-81
2021/03/02 00:33:21;;;;;;;47.17;26.80;;;103.20;2048.00;;;;;;4979937;28;20026;-82
2021/03/02 00:35:47;;;;;;;50.60;29.53;;;103.20;2048.00;;;;;;4980434;28;20030;-83
2021/03/02 00:38:13;;;;;;;54.00;27.40;;;103.00;2073.60;;;;;;4980490;28;20018;-82
2021/03/02 00:40:39;;;;;;;48.13;26.17;;;103.00;2048.00;;;;;;4980397;28;20049;-82
2021/03/02 00:43:05;;;;;;;51.13;27.33;;;103.10;2048.00;;;;;;4980207;28;20022;-82
2021/03/02 00:45:31;;;;;;;60.83;30.73;;;103.20;2022.40;;;;;;4980403;28;20038;-79
2021/03/02 00:47:57;;;;;;;61.43;35.73;;;103.20;2022.40;;;;;;4980670;28;20029;-82
2021/03/02 00:50:24;;;;;;;55.43;32.53;;;103.30;2022.40;;;;;;4980667;28;20437;-83
2021/03/02 00:52:51;;;;;;;57.60;32.97;;;103.30;2022.40;;;;;;4980570;28;20117;-83
2021/03/02 00:55:17;;;;;;;59.53;33.07;;;103.30;1996.80;;;;;;4980503;28;20033;-82
2021/03/02 00:57:42;;;;;;;67.03;36.97;;;103.30;2022.40;;;;;;4980104;28;20085;-83
2021/03/02 01:00:09;;;;;;;150.20;81.50;;;103.20;2048.00;;;;;;4979661;28;20046;-82
2021/03/02 01:02:35;;;;;;;155.93;82.70;;;103.10;2048.00;;;;;;4979814;28;20034;-82
2021/03/02 01:05:01;;;;;;;156.60;85.97;;;103.00;2099.20;;;;;;4979796;28;20575;-83
2021/03/02 01:07:27;;;;;;;141.27;71.70;;;103.00;2073.60;;;;;;4978757;28;20034;-82
2021/03/02 01:09:52;;;;;;;105.37;60.07;;;103.10;2048.00;;;;;;4979674;28;20022;-82
2021/03/02 01:12:18;;;;;;;98.63;55.03;;;103.20;2022.40;;;;;;4979321;28;20037;-83
2021/03/02 01:14:44;;;;;;;116.17;63.50;;;103.20;2048.00;;;;;;4963913;28;20124;-80
2021/03/02 01:17:10;;;;;;;118.33;62.53;;;103.10;2048.00;;;;;;4979324;28;20073;-82
2021/03/02 01:19:36;;;;;;;116.10;63.03;;;103.20;2022.40;;;;;;4979807;28;20117;-82
2021/03/02 01:22:01;;;;;;;99.40;56.73;;;103.10;1996.80;;;;;;4979821;28;20089;-84
2021/03/02 01:24:27;;;;;;;101.70;57.30;;;103.20;1996.80;;;;;;4979898;28;20034;-83
2021/03/02 01:26:53;;;;;;;90.27;53.17;;;103.00;2022.40;;;;;;4979327;28;20038;-83
2021/03/02 01:29:19;;;;;;;96.33;57.63;;;103.10;2022.40;;;;;;4979198;28;20034;-81
2021/03/02 01:31:44;;;;;;;104.73;58.97;;;103.10;1996.80;;;;;;4978993;28;20061;-82
2021/03/02 01:34:10;;;;;;;96.17;58.53;;;103.10;1996.80;;;;;;4979550;28;20066;-82
2021/03/02 01:36:36;;;;;;;84.53;50.67;;;103.10;2022.40;;;;;;4979034;28;20030;-82
2021/03/02 01:39:02;;;;;;;95.33;50.00;;;103.10;2022.40;;;;;;4996502;28;20041;-82
2021/03/02 01:41:27;;;;;;;85.20;47.43;;;103.00;1996.80;;;;;;4978378;28;20031;-82
2021/03/02 01:43:53;;;;;;;114.30;76.47;;;103.00;1996.80;;;;;;4979228;28;20026;-82
2021/03/02 01:46:19;;;;;;;138.70;85.73;;;103.00;2022.40;;;;;;4979242;28;20072;-82
2021/03/02 01:48:44;;;;;;;136.13;76.97;;;102.80;2048.00;;;;;;4979266;28;20025;-81
2021/03/02 01:51:11;;;;;;;94.10;51.80;;;102.80;2048.00;;;;;;4979109;28;20037;-81
2021/03/02 01:53:37;;;;;;;86.07;54.20;;;102.90;2022.40;;;;;;4979098;28;20018;-82
2021/03/02 01:56:03;;;;;;;91.90;52.93;;;102.80;2048.00;;;;;;4978673;28;20045;-82
2021/03/02 01:58:30;;;;;;;96.73;52.93;;;102.60;2099.20;;;;;;4978980;28;20023;-81
2021/03/02 02:01:05;;;;;;;87.10;50.50;;;102.70;2073.60;;;;;;4978086;28;20053;-80
2021/03/02 02:03:40;;;;;;;78.43;43.87;;;102.70;2073.60;;;;;;4979133;28;20426;-82
2021/03/02 02:06:08;;;;;;;81.37;46.27;;;102.60;2099.20;;;;;;4978566;28;20089;-82
2021/03/02 02:09:10;;;;;;;71.67;41.63;;;102.60;2073.60;;;;;;4977911;28;20490;-82
2021/03/02 02:11:49;;;;;;;69.43;41.63;;;102.70;2073.60;;;;;;4994811;28;20027;-82
2021/03/02 02:14:39;;;;;;;78.23;45.13;;;102.60;2073.60;;;;;;4978944;28;20554;-81
2021/03/02 02:17:21;;;;;;;81.97;45.83;;;102.50;2099.20;;;;;;4978556;28;20498;-81
2021/03/02 02:19:56;;;;;;;72.13;40.57;;;102.40;2124.80;;;;;;4978524;28;20089;-82
2021/03/02 02:22:30;;;;;;;93.80;50.30;;;102.40;2099.20;;;;;;4978565;28;20018;-82
2021/03/02 02:25:02;;;;;;;88.87;55.73;;;102.40;2124.80;;;;;;4978175;28;20028;-82
2021/03/02 02:27:30;;;;;;;113.00;60.87;;;77.70;2124.80;;;;;;4978326;28;20034;-82
2021/03/02 02:29:56;;;;;;;106.83;58.67;;;77.70;2124.80;;;;;;4979059;28;20030;-82
2021/03/02 02:32:23;;;;;;;99.97;57.30;;;77.70;2099.20;;;;;;4979668;28;20033;-83
2021/03/02 02:34:51;;;;;;;83.77;43.73;;;77.70;2124.80;;;;;;4979558;28;20030;-82
2021/03/02 02:37:18;;;;;;;85.53;45.50;;;77.70;2124.80;;;;;;4987852;28;20023;-84
2021/03/02 02:39:45;;;;;;;71.70;43.70;;;77.70;2150.40;;;;;;4993641;28;20058;-83
2021/03/02 02:42:12;;;;;;;66.20;37.67;;;77.60;2124.80;;;;;;4992251;28;20089;-83
2021/03/02 02:44:39;;;;;;;63.67;37.80;;;77.60;2150.40;;;;;;4979923;28;20084;-81
2021/03/02 02:47:05;;;;;;;59.97;35.57;;;77.50;2176.00;;;;;;4977946;28;20026;-83
2021/03/02 02:49:32;;;;;;;63.43;37.03;;;77.50;2176.00;;;;;;4978295;28;20069;-83
2021/03/02 02:51:58;;;;;;;60.20;36.43;;;77.60;2124.80;;;;;;4978097;28;20026;-83
2021/03/02 02:54:25;;;;;;;68.10;39.83;;;77.60;2150.40;;;;;;4978303;28;20027;-81
2021/03/02 02:56:52;;;;;;;65.10;37.17;;;77.60;2150.40;;;;;;4994035;28;20054;-82
2021/03/02 02:59:29;;;;;;;63.63;37.73;;;77.60;2124.80;;;;;;4978116;28;20506;-82
2021/03/02 03:02:03;;;;;;;61.90;37.03;;;77.60;2201.60;;;;;;4979353;28;20111;-83
2021/03/02 03:04:44;;;;;;;61.70;33.30;;;77.60;2176.00;;;;;;4988220;28;20006;-83
2021/03/02 03:07:15;;;;;;;58.77;32.80;;;77.40;2176.00;;;;;;4993550;28;20057;-83
2021/03/02 03:09:43;;;;;;;61.37;33.63;;;77.40;2176.00;;;;;;4994890;28;20026;-83
2021/03/02 03:12:14;;;;;;;60.73;34.90;;;77.40;2176.00;;;;;;4993007;28;20038;-83
2021/03/02 03:14:54;;;;;;;71.17;40.83;;;77.40;2176.00;;;;;;4993630;28;20025;-82
2021/03/02 03:17:21;;;;;;;69.80;40.03;;;77.40;2227.20;;;;;;4990422;28;20031;-82
2021/03/02 03:19:48;;;;;;;80.17;41.13;;;77.40;2176.00;;;;;;4981023;28;20117;-84
2021/03/02 03:22:16;;;;;;;69.00;35.83;;;77.50;2124.80;;;;;;4977762;28;20213;-82
2021/03/02 03:24:42;;;;;;;62.33;34.77;;;77.50;2150.40;;;;;;4977869;28;20026;-83
2021/03/02 03:27:09;;;;;;;62.40;34.43;;;77.40;2176.00;;;;;;4977573;28;20095;-81
2021/03/02 03:29:36;;;;;;;67.17;36.53;;;77.40;2176.00;;;;;;4978211;28;20027;-83
2021/03/02 03:32:04;;;;;;;61.87;35.03;;;77.40;2176.00;;;;;;4977497;28;20422;-83
2021/03/02 03:34:31;;;;;;;55.37;32.03;;;77.30;2201.60;;;;;;4977936;28;20030;-84
2021/03/02 03:36:58;;;;;;;63.40;35.70;;;77.40;2176.00;;;;;;4978113;28;20033;-84
2021/03/02 03:39:24;;;;;;;62.10;35.43;;;77.20;2176.00;;;;;;4977529;28;20533;-83
2021/03/02 03:41:50;;;;;;;62.07;38.83;;;77.40;2176.00;;;;;;4977740;28;20121;-84
2021/03/02 03:44:16;;;;;;;82.37;41.60;;;77.20;2227.20;;;;;;4977879;28;20038;-82
2021/03/02 03:46:41;;;;;;;85.90;44.43;;;77.20;2227.20;;;;;;4977648;28;20410;-84
2021/03/02 03:49:07;;;;;;;75.27;41.90;;;77.20;2201.60;;;;;;4977839;28;20023;-83
2021/03/02 03:51:36;;;;;;;86.97;44.27;;;77.20;2227.20;;;;;;4977842;28;20057;-83
2021/03/02 03:54:02;;;;;;;74.40;43.60;;;77.10;2227.20;;;;;;4977445;28;20037;-83
2021/03/02 03:56:28;;;;;;;86.50;46.53;;;77.20;2201.60;;;;;;4977580;28;20382;-83
2021/03/02 03:58:54;;;;;;;144.13;70.23;;;77.20;2201.60;;;;;;4978421;28;20030;-83
2021/03/02 04:01:21;;;;;;;99.03;49.07;;;77.20;2176.00;;;;;;4981370;28;20371;-83
2021/03/02 04:03:47;;;;;;;107.80;57.40;;;77.20;2176.00;;;;;;4981083;28;20038;-85
2021/03/02 04:06:14;;;;;;;83.33;44.37;;;77.10;2176.00;;;;;;4981116;28;20039;-83
2021/03/02 04:08:40;;;;;;;64.27;39.50;;;77.10;2201.60;;;;;;4981087;28;20034;-83
2021/03/02 04:11:06;;;;;;;66.80;38.80;;;77.00;2176.00;;;;;;4980978;28;20466;-84
2021/03/02 04:13:32;;;;;;;77.10;43.00;;;77.00;2176.00;;;;;;4980947;28;20035;-84
2021/03/02 04:15:59;;;;;;;79.30;42.07;;;77.00;2201.60;;;;;;4998553;28;20068;-84
2021/03/02 04:18:25;;;;;;;63.77;38.57;;;76.90;2176.00;;;;;;4981009;28;20037;-84
2021/03/02 04:20:52;;;;;;;67.40;37.27;;;77.00;2201.60;;;;;;4980813;28;20074;-84
2021/03/02 04:23:18;;;;;;;69.40;36.73;;;77.00;2176.00;;;;;;4980878;28;20105;-83
2021/03/02 04:25:43;;;;;;;65.20;35.73;;;76.90;2201.60;;;;;;4980800;28;20117;-83
2021/03/02 04:28:10;;;;;;;68.03;39.03;;;76.80;2227.20;;;;;;4980615;28;20030;-82
2021/03/02 04:30:36;;;;;;;66.63;38.57;;;76.90;2201.60;;;;;;4980362;28;20065;-82
2021/03/02 04:33:03;;;;;;;83.53;45.90;;;76.90;2201.60;;;;;;4980415;28;20586;-82
2021/03/02 04:35:29;;;;;;;71.67;40.77;;;77.00;2150.40;;;;;;4980374;28;20034;-83
2021/03/02 04:37:55;;;;;;;77.47;43.93;;;77.00;2176.00;;;;;;4980476;28;20117;-82
2021/03/02 04:40:21;;;;;;;74.03;43.77;;;76.90;2176.00;;;;;;4980557;28;20027;-83
2021/03/02 04:42:47;;;;;;;78.13;44.67;;;76.90;2227.20;;;;;;4980436;28;20030;-84
2021/03/02 04:45:14;;;;;;;70.57;39.70;;;76.90;2227.20;;;;;;4980110;28;20035;-82
2021/03/02 04:47:42;;;;;;;77.27;41.00;;;76.90;2227.20;;;;;;4980724;28;20471;-84
2021/03/02 04:50:08;;;;;;;71.30;41.30;;;76.90;2201.60;;;;;;4980367;28;20054;-84
2021/03/02 04:52:34;;;;;;;69.10;39.57;;;76.90;2201.60;;;;;;4980405;28;20034;-84
2021/03/02 04:55:00;;;;;;;66.17;37.57;;;76.90;2201.60;;;;;;4997419;28;20466;-82
2021/03/02 04:57:25;;;;;;;63.53;35.60;;;76.80;2201.60;;;;;;4996864;28;20069;-82
2021/03/02 04:59:51;;;;;;;63.83;37.30;;;76.90;2227.20;;;;;;4980150;28;20026;-84
2021/03/02 05:02:17;;;;;;;70.33;38.97;;;76.90;2201.60;;;;;;4980270;28;20026;-83
2021/03/02 05:04:43;;;;;;;77.27;39.80;;;76.80;2201.60;;;;;;4997472;28;20026;-83
2021/03/02 05:07:09;;;;;;;71.87;38.00;;;52.10;2227.20;;;;;;4980325;28;20023;-83
2021/03/02 05:09:35;;;;;;;66.47;38.13;;;52.10;2227.20;;;;;;4979589;28;20027;-81
2021/03/02 05:12:00;;;;;;;80.50;42.87;;;52.10;2201.60;;;;;;4979265;28;20022;-83
2021/03/02 05:14:26;;;;;;;78.43;44.23;;;52.10;2227.20;;;;;;4980215;28;20474;-83
2021/03/02 05:16:52;;;;;;;91.80;49.33;;;52.10;2201.60;;;;;;4980234;28;20030;-82
2021/03/02 05:19:17;;;;;;;93.37;49.47;;;52.10;2201.60;;;;;;4979802;28;20042;-83
2021/03/02 05:21:43;;;;;;;81.67;47.50;;;52.10;2201.60;;;;;;4979750;28;20034;-83
2021/03/02 05:24:10;;;;;;;102.80;56.47;;;52.10;2227.20;;;;;;4996880;28;20030;-81
2021/03/02 05:26:35;;;;;;;93.00;53.00;;;52.00;2227.20;;;;;;4979720;28;20045;-80
2021/03/02 05:29:01;;;;;;;101.33;55.07;;;52.00;2227.20;;;;;;4979456;28;20027;-83
2021/03/02 05:31:27;;;;;;;103.90;53.77;;;52.10;2227.20;;;;;;4979470;28;20417;-83
2021/03/02 05:33:53;;;;;;;97.33;53.97;;;52.10;2201.60;;;;;;4979374;28;20023;-83
2021/03/02 05:36:19;;;;;;;112.40;62.47;;;52.10;2201.60;;;;;;4979321;28;20061;-83
2021/03/02 05:38:45;;;;;;;165.03;92.77;;;76.80;2176.00;;;;;;4996650;28;20035;-82
2021/03/02 05:41:11;;;;;;;137.17;76.33;;;52.10;2201.60;;;;;;4979378;28;20033;-83
2021/03/02 05:43:41;;;;;;;147.70;86.63;;;76.80;2201.60;;;;;;4979226;28;20121;-84
2021/03/02 05:46:08;;;;;;;146.87;78.77;;;52.10;2201.60;;;;;;4979526;28;20038;-83
2021/03/02 05:48:34;;;;;;;155.53;80.97;;;52.10;2201.60;;;;;;4979289;28;20081;-82
2021/03/02 05:51:01;;;;;;;192.93;103.10;;;77.30;2227.20;;;;;;4979051;28;20030;-83
2021/03/02 05:53:27;;;;;;;166.03;93.73;;;51.90;2227.20;;;;;;4979309;28;20121;-82
2021/03/02 05:55:53;;;;;;;167.13;94.27;;;52.00;2227.20;;;;;;4979390;28;20034;-84
2021/03/02 05:58:19;;;;;;;201.47;112.23;;;52.10;2227.20;;;;;;4979284;28;20054;-82
2021/03/02 06:00:45;;;;;;;187.63;99.73;;;76.80;2227.20;;;;;;4983106;28;20026;-82
2021/03/02 06:03:10;;;;;;;168.10;93.70;;;76.80;2227.20;;;;;;4979310;28;20513;-82
2021/03/02 06:05:37;;;;;;;159.97;83.70;;;76.90;2227.20;;;;;;4978549;28;20038;-82
2021/03/02 06:08:06;;;;;;;130.13;73.53;;;76.90;2227.20;;;;;;4996004;28;20030;-82
2021/03/02 06:10:34;;;;;;;117.93;69.90;;;76.90;2227.20;;;;;;4978597;28;20072;-82
2021/03/02 06:13:00;;;;;;;119.17;69.27;;;76.90;2227.20;;;;;;4978569;28;20031;-81
2021/03/02 06:15:29;;;;;;;97.70;57.90;;;76.90;2227.20;;;;;;4978630;28;20026;-82
2021/03/02 06:18:16;;;;;;;79.03;47.57;;;77.00;2227.20;;;;;;4978675;28;20035;-79
2021/03/02 06:20:42;;;;;;;79.77;45.47;;;77.00;2227.20;;;;;;4978563;28;20386;-82
2021/03/02 06:23:26;;;;;;;95.70;54.23;;;77.00;2227.20;;;;;;4977912;28;20062;-80
2021/03/02 06:26:07;;;;;;;92.43;54.60;;;77.00;2227.20;;;;;;4995472;28;20035;-82
2021/03/02 06:28:39;;;;;;;85.83;50.83;;;77.10;2227.20;;;;;;4978740;28;20121;-80
2021/03/02 06:31:06;;;;;;;86.30;48.50;;;77.10;2227.20;;;;;;4978481;28;20129;-83
2021/03/02 06:33:32;;;;;;;86.50;49.37;;;77.20;2227.20;;;;;;4978400;28;20033;-82
2021/03/02 06:35:59;;;;;;;89.93;51.00;;;77.10;2227.20;;;;;;4978631;28;20121;-82
2021/03/02 06:38:33;;;;;;;76.40;44.83;;;77.40;2227.20;;;;;;4995377;28;20036;-82
2021/03/02 06:41:00;;;;;;;74.20;42.70;;;77.50;2227.20;;;;;;4995595;28;20039;-82
2021/03/02 06:43:37;;;;;;;80.73;43.30;;;77.50;2227.20;;;;;;4978126;28;20043;-82
2021/03/02 06:46:10;;;;;;;72.37;44.97;;;77.70;2227.20;;;;;;4988054;28;20038;-82
2021/03/02 06:48:56;;;;;;;73.23;40.77;;;102.40;2227.20;;;;;;4993467;28;20433;-85
2021/03/02 06:51:32;;;;;;;81.30;45.93;;;102.50;2201.60;;;;;;4990571;28;20036;-83
2021/03/02 06:54:16;;;;;;;76.10;46.27;;;102.60;2227.20;;;;;;4990483;28;20060;-83
2021/03/02 06:56:43;;;;;;;71.03;43.23;;;102.70;2201.60;;;;;;4987285;28;20030;-84
2021/03/02 06:59:17;;;;;;;70.17;41.77;;;102.80;2201.60;;;;;;4985418;28;20036;-83
2021/03/02 07:01:45;;;;;;;64.17;37.93;;;102.90;2201.60;;;;;;4999695;28;20083;-83
2021/03/02 07:04:13;;;;;;;65.73;38.87;;;103.00;2176.00;;;;;;4981606;28;20113;-84
2021/03/02 07:07:14;;;;;;;66.70;37.67;;;103.10;2201.60;;;;;;5010260;28;20042;-84
2021/03/02 07:09:41;;;;;;;65.87;39.70;;;103.20;2150.40;;;;;;4978472;28;20102;-83
2021/03/02 07:12:13;;;;;;;66.60;37.00;;;103.30;2150.40;;;;;;5006088;28;20393;-83
2021/03/02 07:14:42;;;;;;;77.15;41.28;;;128.00;2150.40;;;;;;5013758;28;20470;-82
2021/03/02 07:17:13;;;;;;;61.57;37.93;;;128.10;2150.40;;;;;;5013536;28;20026;-82
2021/03/02 07:19:47;;;;;;;66.27;39.33;;;128.10;2150.40;;;;;;4997240;28;20052;-81
2021/03/02 07:22:15;;;;;;;65.13;35.83;;;128.10;2150.40;;;;;;4999570;28;20033;-80
2021/03/02 07:24:43;;;;;;;68.13;37.90;;;128.20;2150.40;;;;;;4997163;28;20029;-81
2021/03/02 07:27:10;;;;;;;70.33;38.60;;;128.20;2176.00;;;;;;4997316;28;20033;-83
2021/03/02 07:29:38;;;;;;;81.53;45.33;;;128.50;2176.00;;;;;;5020762;28;20029;-81
2021/03/02 07:32:04;;;;;;;88.90;49.40;;;128.40;2150.40;;;;;;5015135;28;20046;-83
2021/03/02 07:34:30;;;;;;;89.80;50.93;;;128.50;2150.40;;;;;;5002979;28;20030;-82
2021/03/02 07:36:56;;;;;;;86.90;49.87;;;128.60;2176.00;;;;;;5018112;28;20022;-82
2021/03/02 07:39:29;;;;;;;97.47;52.17;;;128.90;2150.40;;;;;;5000659;28;20077;-80
2021/03/02 07:41:56;;;;;;;;;;;153.60;2150.40;;;;;;5001837;28;20182;-82
2021/03/02 07:44:21;;;;;;;85.40;47.60;;;153.70;2124.80;;;;;;5000030;28;19905;-81
2021/03/02 07:46:50;;;;;;;78.23;44.77;;;153.90;2124.80;;;;;;5001624;28;20038;-82
2021/03/02 07:49:24;;;;;;;81.13;45.27;;;154.10;2099.20;;;;;;5002182;28;20538;-81
2021/03/02 07:51:56;;;;;;;77.57;43.13;;;154.30;2073.60;;;;;;5018925;28;20398;-82
2021/03/02 07:54:22;;;;;;;73.90;42.13;;;154.50;2048.00;;;;;;5021062;28;20030;-81
2021/03/02 07:56:48;;;;;;;79.70;45.23;;;179.30;2048.00;;;;;;5004640;28;20105;-85
2021/03/02 07:59:13;;;;;;;69.90;40.70;;;179.40;2022.40;;;;;;5005404;28;20041;-84
2021/03/02 08:01:39;;;;;;;71.07;39.73;;;179.60;1996.80;;;;;;5003363;28;20385;-81
2021/03/02 08:04:14;;;;;;;62.10;36.43;;;179.70;2022.40;;;;;;5000494;28;20030;-80
2021/03/02 08:06:41;;;;;;;67.67;38.87;;;179.90;1996.80;;;;;;5014599;28;20021;-80
2021/03/02 08:09:22;;;;;;;66.37;37.80;;;180.10;1996.80;;;;;;5003004;28;20068;-81
2021/03/02 08:11:48;;;;;;;58.07;36.27;;;205.00;1945.60;;;;;;5015581;28;20117;-78
2021/03/02 08:14:17;;;;;;;59.10;33.97;;;205.20;1920.00;;;;;;4995773;28;20034;-79
2021/03/02 08:16:56;;;;;;;62.37;33.77;;;205.20;1894.40;;;;;;4996366;28;20034;-79
2021/03/02 08:19:48;;;;;;;62.93;36.37;;;205.20;1868.80;;;;;;4997892;28;20019;-78
2021/03/02 08:22:20;;;;;;;66.60;35.73;;;205.40;1868.80;;;;;;4997375;28;20080;-78
2021/03/02 08:24:59;;;;;;;65.83;34.67;;;205.60;1868.80;;;;;;4997546;28;20027;-78
2021/03/02 08:27:46;;;;;;;55.63;32.70;;;230.40;1843.20;;;;;;4995671;28;20077;-79
2021/03/02 08:30:21;;;;;;;46.50;28.83;;;230.40;1817.60;;;;;;4995578;28;20054;-79
2021/03/02 08:32:48;;;;;;;60.77;36.70;;;230.40;1792.00;;;;;;4996079;28;20035;-78
2021/03/02 08:35:15;;;;;;;54.07;30.87;;;230.60;1792.00;;;;;;4995480;28;20034;-79
2021/03/02 08:37:50;;;;;;;51.93;30.80;;;230.90;1740.80;;;;;;4996040;28;20048;-79
2021/03/02 08:40:22;;;;;;;48.07;27.67;;;231.10;1715.20;;;;;;4995961;28;20116;-81
2021/03/02 08:43:13;;;;;;;48.85;28.48;;;231.20;1689.60;;;;;;4995882;28;20032;-78
2021/03/02 08:45:57;;;;;;;49.83;29.30;;;256.00;1664.00;;;;;;4994981;28;20108;-78
2021/03/02 08:48:33;;;;;;;47.60;26.57;;;256.20;1664.00;;;;;;4995469;28;20034;-80
2021/03/02 08:51:03;;;;;;;41.67;27.30;;;256.20;1638.40;;;;;;4995971;28;20486;-79
2021/03/02 08:53:40;;;;;;;39.20;23.57;;;256.40;1561.60;;;;;;4996196;28;20018;-82
2021/03/02 08:56:25;;;;;;;42.90;26.48;;;256.70;1536.00;;;;;;4997193;28;20018;-79
2021/03/02 08:59:05;;;;;;;35.42;23.05;;;281.80;1587.20;;;;;;4992068;28;20037;-80
2021/03/02 09:01:35;;;;;;;39.33;22.60;;;282.00;1587.20;;;;;;4996872;28;20080;-78
2021/03/02 09:04:11;;;;;;;35.20;20.35;;;281.80;1536.00;;;;;;4995109;28;20041;-80
2021/03/02 09:06:38;;;;;;;56.20;28.13;;;282.00;1587.20;;;;;;4995112;28;20046;-81
2021/03/02 09:09:13;;;;;;;39.67;26.52;;;282.00;1536.00;;;;;;4995196;28;20018;-79
2021/03/02 09:11:44;;;;;;;41.25;23.10;;;282.10;1536.00;;;;;;4995371;28;20030;-78
2021/03/02 09:14:14;;;;;;;35.45;19.85;;;282.20;1536.00;;;;;;4995524;28;20108;-80
2021/03/02 09:16:41;;;;;;;34.42;22.75;;;282.30;1510.40;;;;;;4995899;28;20540;-81
2021/03/02 09:19:17;;;;;;;34.55;22.48;;;282.40;1510.40;;;;;;4996583;28;20042;-84
2021/03/02 09:22:06;;;;;;;37.70;23.92;;;307.30;1536.00;;;;;;4997278;28;20036;-82
2021/03/02 09:24:38;;;;;;;35.80;21.80;;;307.60;1536.00;;;;;;4995199;28;20034;-83
2021/03/02 09:27:08;;;;;;;31.08;20.25;;;307.70;1510.40;;;;;;4994697;28;20135;-81
2021/03/02 09:29:41;;;;;;;35.25;20.08;;;307.80;1459.20;;;;;;4994434;28;20026;-82
2021/03/02 09:32:08;;;;;;;34.95;20.20;;;307.80;1408.00;;;;;;4996212;28;20054;-81
2021/03/02 09:34:38;;;;;;;33.22;20.63;;;307.80;1433.60;;;;;;4996644;28;20031;-82
2021/03/02 09:37:09;;;;;;;33.08;19.95;;;282.50;1433.60;;;;;;4996426;28;20030;-82
2021/03/02 09:39:37;;;;;;;29.67;18.02;;;282.30;1459.20;;;;;;4995562;28;20022;-83
2021/03/02 09:42:15;;;;;;;34.22;23.00;;;307.80;1433.60;;;;;;4994815;28;20054;-79
2021/03/02 09:44:47;;;;;;;32.72;20.02;;;332.90;1408.00;;;;;;4994745;28;20033;-81
2021/03/02 09:47:18;;;;;;;32.78;22.02;;;333.10;1408.00;;;;;;4994751;28;20039;-82
2021/03/02 09:49:53;;;;;;;34.42;20.95;;;308.10;1382.40;;;;;;4996069;28;20110;-80
2021/03/02 09:52:44;;;;;;;40.67;31.65;;;308.00;1382.40;;;;;;4994978;28;20026;-82
2021/03/02 09:55:16;;;;;;;23.27;16.00;;;333.10;1382.40;;;;;;4994592;28;20045;-83
2021/03/02 09:58:14;;;;;;;25.27;17.77;;;333.70;1382.40;;;;;;4995764;28;20065;-83
2021/03/02 10:00:45;;;;;;;23.52;15.18;;;358.40;1331.20;;;;;;4994562;28;20275;-82
2021/03/02 10:03:22;;;;;;;21.63;13.55;;;358.40;1331.20;;;;;;4996331;28;20030;-85
2021/03/02 10:06:01;;;;;;;21.67;13.32;;;358.70;1280.00;;;;;;4994166;28;20077;-83
2021/03/02 10:08:39;;;;;;;22.63;13.88;;;358.50;1305.60;;;;;;4994422;28;20027;-84
2021/03/02 10:11:11;;;;;;;22.83;15.18;;;358.90;1280.00;;;;;;4994554;28;20026;-85
2021/03/02 10:13:41;;;;;;;23.98;13.85;;;359.00;1280.00;;;;;;4994421;28;20034;-82
2021/03/02 10:16:32;;;;;;;23.25;15.50;;;359.10;1280.00;;;;;;4994380;28;20088;-82
2021/03/02 10:19:01;;;;;;;22.95;15.32;;;359.30;1254.40;;;;;;4994178;28;20080;-81
2021/03/02 10:21:49;;;;;;;26.02;16.10;;;358.80;1305.60;;;;;;4995078;28;20030;-82
2021/03/02 10:24:25;;;;;;;24.77;16.63;;;359.10;1203.20;;;;;;4994296;28;20023;-81
2021/03/02 10:26:53;;;;;;;32.67;18.23;;;358.80;1254.40;;;;;;4993574;28;20077;-81
2021/03/02 10:29:19;;;;;;;25.13;14.77;;;358.80;1280.00;;;;;;4993395;28;20034;-82
2021/03/02 10:31:45;;;;;;;29.58;18.45;;;359.30;1254.40;;;;;;4993784;28;20092;-82
2021/03/02 10:34:12;;;;;;;25.23;17.13;;;359.20;1228.80;;;;;;4995336;28;20026;-80
2021/03/02 10:36:40;;;;;;;27.05;16.92;;;358.90;1254.40;;;;;;4995644;28;20026;-82
2021/03/02 10:39:14;;;;;;;24.20;16.15;;;359.30;1280.00;;;;;;4995181;28;20046;-80
2021/03/02 10:41:45;;;;;;;22.90;15.35;;;384.20;1203.20;;;;;;4994315;28;20037;-81
2021/03/02 10:44:12;;;;;;;28.73;17.27;;;384.40;1228.80;;;;;;4978052;28;20034;-81
2021/03/02 10:46:38;;;;;;;20.02;12.70;;;384.60;1203.20;;;;;;4995811;28;20089;-81
2021/03/02 10:49:05;;;;;;;19.73;13.20;;;384.20;1228.80;;;;;;4977941;28;20092;-81
2021/03/02 10:51:32;;;;;;;23.08;13.35;;;384.40;1228.80;;;;;;4993406;28;20129;-80
2021/03/02 10:53:58;;;;;;;19.10;12.77;;;384.60;1228.80;;;;;;4977833;28;20033;-80
2021/03/02 10:56:24;;;;;;;17.70;11.40;;;384.90;1228.80;;;;;;4993811;28;20118;-77
2021/03/02 10:58:50;;;;;;;21.35;12.32;;;409.80;1331.20;;;;;;4993249;28;20107;-78
2021/03/02 11:01:18;;;;;;;17.23;11.18;;;410.10;1331.20;;;;;;4996291;28;20044;-77
2021/03/02 11:03:44;;;;;;;18.60;12.85;;;410.40;1254.40;;;;;;4996544;28;20041;-78
2021/03/02 11:06:15;;;;;;;22.75;12.45;;;410.50;1254.40;;;;;;4996746;28;20030;-77
2021/03/02 11:08:44;;;;;;;17.58;11.70;;;435.30;1203.20;;;;;;4995996;28;20466;-79
2021/03/02 11:11:14;;;;;;;17.17;11.25;;;435.30;1152.00;;;;;;4997229;28;20065;-79
2021/03/02 11:13:40;;;;;;;16.65;11.77;;;435.40;1126.40;;;;;;4995765;28;20018;-77
2021/03/02 11:16:06;;;;;;;14.38;11.02;;;435.70;1100.80;;;;;;5012777;28;20029;-77
2021/03/02 11:18:32;;;;;;;17.27;10.93;;;435.70;1075.20;;;;;;4995031;28;20541;-80
2021/03/02 11:20:58;;;;;;;15.05;10.38;;;435.90;1100.80;;;;;;4996500;28;20021;-81
2021/03/02 11:23:24;;;;;;;15.75;8.98;;;435.30;1075.20;;;;;;4996443;28;20033;-78
2021/03/02 11:25:50;;;;;;;14.25;9.57;;;435.80;1075.20;;;;;;4995686;28;20049;-77
2021/03/02 11:28:16;;;;;;;13.05;8.32;;;435.70;1049.60;;;;;;4996215;28;20061;-82
2021/03/02 11:30:43;;;;;;;11.52;8.70;;;460.80;1100.80;;;;;;5012496;28;20131;-80
2021/03/02 11:33:09;;;;;;;12.43;7.97;;;436.10;1049.60;;;;;;4996461;28;20551;-82
2021/03/02 11:35:36;;;;;;;19.95;8.50;;;461.20;1024.00;;;;;;4996687;28;20030;-82
2021/03/02 11:38:03;;;;;;;18.25;13.05;;;461.30;1049.60;;;;;;4997039;28;20029;-79
2021/03/02 11:40:30;;;;;;;17.92;12.75;;;410.30;1049.60;;;;;;4996918;28;20030;-81
2021/03/02 11:42:57;;;;;;;17.83;12.20;;;409.70;1075.20;;;;;;4995881;28;20025;-79
2021/03/02 11:45:27;;;;;;;15.65;11.73;;;410.50;1049.60;;;;;;4995871;28;20096;-82
2021/03/02 11:47:53;;;;;;;15.45;10.70;;;410.00;1049.60;;;;;;5007576;28;20053;-80
2021/03/02 11:50:19;;;;;;;13.38;9.98;;;410.50;1024.00;;;;;;4996096;28;20034;-83
2021/03/02 11:52:47;;;;;;;14.48;9.80;;;435.50;1049.60;;;;;;4996370;28;20032;-81
2021/03/02 11:55:13;;;;;;;15.25;10.40;;;435.70;998.40;;;;;;4996297;28;20037;-82
2021/03/02 11:57:39;;;;;;;20.63;12.70;;;435.90;998.40;;;;;;4995250;28;20125;-81
2021/03/02 12:00:11;;;;;;;19.15;12.18;;;435.60;998.40;;;;;;4996229;28;20144;-82
2021/03/02 12:02:37;;;;;;;16.40;11.13;;;410.30;1049.60;;;;;;4996448;28;20056;-81
2021/03/02 12:05:04;;;;;;;17.25;11.00;;;435.60;1049.60;;;;;;4995975;28;20434;-81
2021/03/02 12:07:30;;;;;;;17.90;10.75;;;435.80;1024.00;;;;;;4995480;28;20061;-80
2021/03/02 12:09:56;;;;;;;15.15;10.15;;;461.00;1024.00;;;;;;4996493;28;20036;-81
2021/03/02 12:12:22;;;;;;;18.92;10.82;;;461.30;1024.00;;;;;;4996220;28;20393;-83